sensor_id;sensor_type;location;lat;lon;timestamp;temperature;humidity
24252;DHT22;12380;51.118;4.176;2022-12-18T00:01:45;-3.40;99.90
24252;DHT22;12380;51.118;4.176;2022-12-18T00:04:15;-3.50;99.90
24252;DHT22;12380;51.118;4.176;2022-12-18T00:06:43;-3.50;99.90
24252;DHT22;12380;51.118;4.176;2022-12-18T00:09:09;-3.50;99.90
24252;DHT22;12380;51.118;4.176;2022-12-18T00:11:35;-3.50;99.90
24252;DHT22;12380;51.118;4.176;2022-12-18T00:14:01;-3.40;99.90
24252;DHT22;12380;51.118;4.176;2022-12-18T00:16:27;-3.30;99.90
24252;DHT22;12380;51.118;4.176;2022-12-18T00:18:54;-3.40;99.90
24252;DHT22;12380;51.118;4.176;2022-12-18T00:21:20;-3.40;99.90
24252;DHT22;12380;51.118;4.176;2022-12-18T00:23:48;-3.50;99.90
24252;DHT22;12380;51.118;4.176;2022-12-18T00:26:15;-3.60;99.90
24252;DHT22;12380;51.118;4.176;2022-12-18T00:28:42;-3.70;99.90
24252;DHT22;12380;51.118;4.176;2022-12-18T00:31:19;-3.70;99.90
24252;DHT22;12380;51.118;4.176;2022-12-18T00:33:45;-3.50;99.90
24252;DHT22;12380;51.118;4.176;2022-12-18T00:36:14;-3.50;99.90
24252;DHT22;12380;51.118;4.176;2022-12-18T00:38:40;-3.50;99.90
24252;DHT22;12380;51.118;4.176;2022-12-18T00:41:08;-3.60;99.90
24252;DHT22;12380;51.118;4.176;2022-12-18T00:43:35;-3.70;99.90
24252;DHT22;12380;51.118;4.176;2022-12-18T00:46:00;-3.70;99.90
24252;DHT22;12380;51.118;4.176;2022-12-18T00:48:26;-3.70;99.90
24252;DHT22;12380;51.118;4.176;2022-12-18T00:50:51;-3.70;99.90
24252;DHT22;12380;51.118;4.176;2022-12-18T00:53:17;-3.80;99.90
24252;DHT22;12380;51.118;4.176;2022-12-18T00:55:43;-3.80;99.90
24252;DHT22;12380;51.118;4.176;2022-12-18T00:58:09;-3.80;99.90
24252;DHT22;12380;51.118;4.176;2022-12-18T01:00:36;-3.70;99.90
24252;DHT22;12380;51.118;4.176;2022-12-18T01:03:02;-3.50;99.90
24252;DHT22;12380;51.118;4.176;2022-12-18T01:05:28;-3.40;99.90
24252;DHT22;12380;51.118;4.176;2022-12-18T01:07:54;-3.50;99.90
24252;DHT22;12380;51.118;4.176;2022-12-18T01:10:20;-3.60;99.90
24252;DHT22;12380;51.118;4.176;2022-12-18T01:12:46;-3.70;99.90
24252;DHT22;12380;51.118;4.176;2022-12-18T01:15:14;-3.70;99.90
24252;DHT22;12380;51.118;4.176;2022-12-18T01:17:40;-3.70;99.90
24252;DHT22;12380;51.118;4.176;2022-12-18T01:20:07;-3.70;99.90
24252;DHT22;12380;51.118;4.176;2022-12-18T01:22:34;-3.70;99.90
24252;DHT22;12380;51.118;4.176;2022-12-18T01:24:59;-3.70;99.90
24252;DHT22;12380;51.118;4.176;2022-12-18T01:27:25;-3.80;99.90
24252;DHT22;12380;51.118;4.176;2022-12-18T01:29:51;-3.80;99.90
24252;DHT22;12380;51.118;4.176;2022-12-18T01:32:16;-4.00;99.90
24252;DHT22;12380;51.118;4.176;2022-12-18T01:34:42;-3.90;99.90
24252;DHT22;12380;51.118;4.176;2022-12-18T01:37:07;-3.80;99.90
24252;DHT22;12380;51.118;4.176;2022-12-18T01:39:33;-3.80;99.90
24252;DHT22;12380;51.118;4.176;2022-12-18T01:42:01;-3.70;99.90
24252;DHT22;12380;51.118;4.176;2022-12-18T01:47:15;-3.70;99.90
24252;DHT22;12380;51.118;4.176;2022-12-18T01:49:44;-3.60;99.90
24252;DHT22;12380;51.118;4.176;2022-12-18T01:52:11;-3.70;99.90
24252;DHT22;12380;51.118;4.176;2022-12-18T01:54:37;-3.60;99.90
24252;DHT22;12380;51.118;4.176;2022-12-18T01:57:03;-3.50;99.90
24252;DHT22;12380;51.118;4.176;2022-12-18T01:59:29;-3.50;99.90
24252;DHT22;12380;51.118;4.176;2022-12-18T02:01:55;-3.60;99.90
24252;DHT22;12380;51.118;4.176;2022-12-18T02:04:22;-3.70;99.90
24252;DHT22;12380;51.118;4.176;2022-12-18T02:09:37;-3.80;99.90
24252;DHT22;12380;51.118;4.176;2022-12-18T02:14:38;-3.90;99.90
24252;DHT22;12380;51.118;4.176;2022-12-18T02:17:09;-3.90;99.90
24252;DHT22;12380;51.118;4.176;2022-12-18T02:19:47;-3.80;99.90
24252;DHT22;12380;51.118;4.176;2022-12-18T02:27:34;-3.90;99.90
24252;DHT22;12380;51.118;4.176;2022-12-18T02:30:05;-4.10;99.90
24252;DHT22;12380;51.118;4.176;2022-12-18T02:32:35;-4.00;99.90
24252;DHT22;12380;51.118;4.176;2022-12-18T02:35:04;-3.80;99.90
24252;DHT22;12380;51.118;4.176;2022-12-18T02:37:30;-3.90;99.90
24252;DHT22;12380;51.118;4.176;2022-12-18T02:39:58;-4.00;99.90
24252;DHT22;12380;51.118;4.176;2022-12-18T02:42:27;-4.10;99.90
24252;DHT22;12380;51.118;4.176;2022-12-18T02:44:53;-4.10;99.90
24252;DHT22;12380;51.118;4.176;2022-12-18T02:47:22;-4.10;99.90
24252;DHT22;12380;51.118;4.176;2022-12-18T02:52:33;-4.00;99.90
24252;DHT22;12380;51.118;4.176;2022-12-18T02:55:19;-4.00;99.90
24252;DHT22;12380;51.118;4.176;2022-12-18T02:58:01;-3.90;99.90
24252;DHT22;12380;51.118;4.176;2022-12-18T03:00:29;-4.00;99.90
24252;DHT22;12380;51.118;4.176;2022-12-18T03:02:59;-4.00;99.90
24252;DHT22;12380;51.118;4.176;2022-12-18T03:05:32;-4.00;99.90
24252;DHT22;12380;51.118;4.176;2022-12-18T03:08:06;-4.20;99.90
24252;DHT22;12380;51.118;4.176;2022-12-18T03:10:33;-4.20;99.90
24252;DHT22;12380;51.118;4.176;2022-12-18T03:13:02;-4.30;99.90
24252;DHT22;12380;51.118;4.176;2022-12-18T03:15:30;-4.20;99.90
24252;DHT22;12380;51.118;4.176;2022-12-18T03:17:59;-4.20;99.90
24252;DHT22;12380;51.118;4.176;2022-12-18T03:20:27;-4.20;99.90
24252;DHT22;12380;51.118;4.176;2022-12-18T03:22:57;-4.10;99.90
24252;DHT22;12380;51.118;4.176;2022-12-18T03:25:26;-4.10;99.90
24252;DHT22;12380;51.118;4.176;2022-12-18T03:27:53;-4.10;99.90
24252;DHT22;12380;51.118;4.176;2022-12-18T03:30:20;-4.00;99.90
24252;DHT22;12380;51.118;4.176;2022-12-18T03:32:53;-4.10;99.90
24252;DHT22;12380;51.118;4.176;2022-12-18T03:35:24;-4.00;99.90
24252;DHT22;12380;51.118;4.176;2022-12-18T03:37:50;-4.20;99.90
24252;DHT22;12380;51.118;4.176;2022-12-18T03:40:17;-4.20;99.90
24252;DHT22;12380;51.118;4.176;2022-12-18T03:42:49;-4.30;99.90
24252;DHT22;12380;51.118;4.176;2022-12-18T03:45:22;-4.30;99.90
24252;DHT22;12380;51.118;4.176;2022-12-18T03:47:55;-4.20;99.90
24252;DHT22;12380;51.118;4.176;2022-12-18T03:50:29;-4.20;99.90
24252;DHT22;12380;51.118;4.176;2022-12-18T03:55:24;-4.20;99.90
24252;DHT22;12380;51.118;4.176;2022-12-18T03:57:52;-4.20;99.90
24252;DHT22;12380;51.118;4.176;2022-12-18T04:00:19;-4.10;99.90
24252;DHT22;12380;51.118;4.176;2022-12-18T04:02:47;-4.30;99.90
24252;DHT22;12380;51.118;4.176;2022-12-18T04:05:13;-4.30;99.90
24252;DHT22;12380;51.118;4.176;2022-12-18T04:07:39;-4.50;99.90
24252;DHT22;12380;51.118;4.176;2022-12-18T04:10:06;-4.40;99.90
24252;DHT22;12380;51.118;4.176;2022-12-18T04:12:33;-4.40;99.90
24252;DHT22;12380;51.118;4.176;2022-12-18T04:15:01;-4.40;99.90
24252;DHT22;12380;51.118;4.176;2022-12-18T04:17:27;-4.20;99.90
24252;DHT22;12380;51.118;4.176;2022-12-18T04:19:52;-4.30;99.90
24252;DHT22;12380;51.118;4.176;2022-12-18T04:22:18;-4.40;99.90
24252;DHT22;12380;51.118;4.176;2022-12-18T04:24:43;-4.30;99.90
24252;DHT22;12380;51.118;4.176;2022-12-18T04:27:09;-4.30;99.90
24252;DHT22;12380;51.118;4.176;2022-12-18T04:29:37;-4.30;99.90
24252;DHT22;12380;51.118;4.176;2022-12-18T04:32:06;-4.30;99.90
24252;DHT22;12380;51.118;4.176;2022-12-18T04:34:32;-4.20;99.90
24252;DHT22;12380;51.118;4.176;2022-12-18T04:36:58;-4.20;99.90
24252;DHT22;12380;51.118;4.176;2022-12-18T04:39:23;-4.30;99.90
24252;DHT22;12380;51.118;4.176;2022-12-18T04:41:49;-4.40;99.90
24252;DHT22;12380;51.118;4.176;2022-12-18T04:44:17;-4.30;99.90
24252;DHT22;12380;51.118;4.176;2022-12-18T04:46:46;-4.30;99.90
24252;DHT22;12380;51.118;4.176;2022-12-18T04:49:11;-4.30;99.90
24252;DHT22;12380;51.118;4.176;2022-12-18T04:51:37;-4.30;99.90
24252;DHT22;12380;51.118;4.176;2022-12-18T04:54:05;-4.20;99.90
24252;DHT22;12380;51.118;4.176;2022-12-18T04:56:31;-4.20;99.90
24252;DHT22;12380;51.118;4.176;2022-12-18T04:58:57;-4.20;99.90
24252;DHT22;12380;51.118;4.176;2022-12-18T05:01:22;-4.30;99.90
24252;DHT22;12380;51.118;4.176;2022-12-18T05:03:48;-4.50;99.90
24252;DHT22;12380;51.118;4.176;2022-12-18T05:06:14;-4.50;99.90
24252;DHT22;12380;51.118;4.176;2022-12-18T05:08:42;-4.40;99.90
24252;DHT22;12380;51.118;4.176;2022-12-18T05:11:08;-4.40;99.90
24252;DHT22;12380;51.118;4.176;2022-12-18T05:13:35;-4.40;99.90
24252;DHT22;12380;51.118;4.176;2022-12-18T05:16:01;-4.50;99.90
24252;DHT22;12380;51.118;4.176;2022-12-18T05:18:27;-4.60;99.90
24252;DHT22;12380;51.118;4.176;2022-12-18T05:20:53;-4.60;99.90
24252;DHT22;12380;51.118;4.176;2022-12-18T05:23:19;-4.70;99.90
24252;DHT22;12380;51.118;4.176;2022-12-18T05:25:53;-4.70;99.90
24252;DHT22;12380;51.118;4.176;2022-12-18T05:28:19;-4.60;99.90
24252;DHT22;12380;51.118;4.176;2022-12-18T05:30:52;-4.60;99.90
24252;DHT22;12380;51.118;4.176;2022-12-18T05:33:19;-4.60;99.90
24252;DHT22;12380;51.118;4.176;2022-12-18T05:35:49;-4.70;99.90
24252;DHT22;12380;51.118;4.176;2022-12-18T05:38:16;-4.80;99.90
24252;DHT22;12380;51.118;4.176;2022-12-18T05:40:44;-4.70;99.90
24252;DHT22;12380;51.118;4.176;2022-12-18T05:43:10;-4.60;99.90
24252;DHT22;12380;51.118;4.176;2022-12-18T05:45:41;-4.60;99.90
24252;DHT22;12380;51.118;4.176;2022-12-18T05:48:09;-4.60;99.90
24252;DHT22;12380;51.118;4.176;2022-12-18T05:50:35;-4.60;99.90
24252;DHT22;12380;51.118;4.176;2022-12-18T05:53:01;-4.50;99.90
24252;DHT22;12380;51.118;4.176;2022-12-18T05:55:27;-4.50;99.90
24252;DHT22;12380;51.118;4.176;2022-12-18T05:57:56;-4.50;99.90
24252;DHT22;12380;51.118;4.176;2022-12-18T06:00:24;-4.50;99.90
24252;DHT22;12380;51.118;4.176;2022-12-18T06:02:49;-4.60;99.90
24252;DHT22;12380;51.118;4.176;2022-12-18T06:05:17;-4.50;99.90
24252;DHT22;12380;51.118;4.176;2022-12-18T06:07:43;-4.80;99.90
24252;DHT22;12380;51.118;4.176;2022-12-18T06:10:08;-4.80;99.90
24252;DHT22;12380;51.118;4.176;2022-12-18T06:12:34;-4.60;99.90
24252;DHT22;12380;51.118;4.176;2022-12-18T06:15:03;-4.70;99.90
24252;DHT22;12380;51.118;4.176;2022-12-18T06:17:29;-4.60;99.90
24252;DHT22;12380;51.118;4.176;2022-12-18T06:19:55;-4.60;99.90
24252;DHT22;12380;51.118;4.176;2022-12-18T06:22:20;-4.70;99.90
24252;DHT22;12380;51.118;4.176;2022-12-18T06:24:46;-4.70;99.90
24252;DHT22;12380;51.118;4.176;2022-12-18T06:27:12;-4.80;99.90
24252;DHT22;12380;51.118;4.176;2022-12-18T06:29:37;-4.60;99.90
24252;DHT22;12380;51.118;4.176;2022-12-18T06:32:03;-4.70;99.90
24252;DHT22;12380;51.118;4.176;2022-12-18T06:34:29;-4.60;99.90
24252;DHT22;12380;51.118;4.176;2022-12-18T06:36:55;-4.70;99.90
24252;DHT22;12380;51.118;4.176;2022-12-18T06:39:20;-4.70;99.90
24252;DHT22;12380;51.118;4.176;2022-12-18T06:41:46;-4.60;99.90
24252;DHT22;12380;51.118;4.176;2022-12-18T06:44:12;-4.60;99.90
24252;DHT22;12380;51.118;4.176;2022-12-18T06:46:37;-4.50;99.90
24252;DHT22;12380;51.118;4.176;2022-12-18T06:49:08;-4.40;99.90
24252;DHT22;12380;51.118;4.176;2022-12-18T06:51:34;-4.60;99.90
24252;DHT22;12380;51.118;4.176;2022-12-18T06:54:03;-4.60;99.90
24252;DHT22;12380;51.118;4.176;2022-12-18T06:56:29;-4.60;99.90
24252;DHT22;12380;51.118;4.176;2022-12-18T06:58:55;-4.60;99.90
24252;DHT22;12380;51.118;4.176;2022-12-18T07:01:21;-4.50;99.90
24252;DHT22;12380;51.118;4.176;2022-12-18T07:03:46;-4.70;99.90
24252;DHT22;12380;51.118;4.176;2022-12-18T07:06:15;-4.80;99.90
24252;DHT22;12380;51.118;4.176;2022-12-18T07:08:42;-4.60;99.90
24252;DHT22;12380;51.118;4.176;2022-12-18T07:11:08;-4.50;99.90
24252;DHT22;12380;51.118;4.176;2022-12-18T07:13:33;-4.50;99.90
24252;DHT22;12380;51.118;4.176;2022-12-18T07:16:03;-4.60;99.90
24252;DHT22;12380;51.118;4.176;2022-12-18T07:18:29;-4.70;99.90
24252;DHT22;12380;51.118;4.176;2022-12-18T07:20:55;-4.70;99.90
24252;DHT22;12380;51.118;4.176;2022-12-18T07:23:21;-4.80;99.90
24252;DHT22;12380;51.118;4.176;2022-12-18T07:25:46;-4.70;99.90
24252;DHT22;12380;51.118;4.176;2022-12-18T07:28:12;-4.60;99.90
24252;DHT22;12380;51.118;4.176;2022-12-18T07:30:40;-4.70;99.90
24252;DHT22;12380;51.118;4.176;2022-12-18T07:33:06;-4.70;99.90
24252;DHT22;12380;51.118;4.176;2022-12-18T07:35:33;-4.70;99.90
24252;DHT22;12380;51.118;4.176;2022-12-18T07:37:59;-4.70;99.90
24252;DHT22;12380;51.118;4.176;2022-12-18T07:40:24;-4.80;99.90
24252;DHT22;12380;51.118;4.176;2022-12-18T07:42:50;-4.80;99.90
24252;DHT22;12380;51.118;4.176;2022-12-18T07:45:16;-4.80;99.90
24252;DHT22;12380;51.118;4.176;2022-12-18T07:47:42;-4.80;99.90
24252;DHT22;12380;51.118;4.176;2022-12-18T07:50:08;-4.70;99.90
24252;DHT22;12380;51.118;4.176;2022-12-18T07:52:34;-4.60;99.90
24252;DHT22;12380;51.118;4.176;2022-12-18T07:55:00;-4.70;99.90
24252;DHT22;12380;51.118;4.176;2022-12-18T07:57:26;-4.70;99.90
24252;DHT22;12380;51.118;4.176;2022-12-18T07:59:54;-4.60;99.90
24252;DHT22;12380;51.118;4.176;2022-12-18T08:02:20;-4.80;99.90
24252;DHT22;12380;51.118;4.176;2022-12-18T08:04:46;-4.70;99.90
24252;DHT22;12380;51.118;4.176;2022-12-18T08:07:12;-4.50;99.90
24252;DHT22;12380;51.118;4.176;2022-12-18T08:09:40;-4.50;99.90
24252;DHT22;12380;51.118;4.176;2022-12-18T08:12:06;-4.40;99.90
24252;DHT22;12380;51.118;4.176;2022-12-18T08:14:31;-4.40;99.90
24252;DHT22;12380;51.118;4.176;2022-12-18T08:16:57;-4.40;99.90
24252;DHT22;12380;51.118;4.176;2022-12-18T08:19:23;-4.30;99.90
24252;DHT22;12380;51.118;4.176;2022-12-18T08:21:49;-4.20;99.90
24252;DHT22;12380;51.118;4.176;2022-12-18T08:24:15;-4.30;99.90
24252;DHT22;12380;51.118;4.176;2022-12-18T08:26:41;-4.20;99.90
24252;DHT22;12380;51.118;4.176;2022-12-18T08:29:09;-4.00;99.90
24252;DHT22;12380;51.118;4.176;2022-12-18T08:31:35;-4.10;99.90
24252;DHT22;12380;51.118;4.176;2022-12-18T08:34:01;-4.10;99.90
24252;DHT22;12380;51.118;4.176;2022-12-18T08:36:26;-4.00;99.90
24252;DHT22;12380;51.118;4.176;2022-12-18T08:38:52;-4.00;99.90
24252;DHT22;12380;51.118;4.176;2022-12-18T08:41:18;-3.90;99.90
24252;DHT22;12380;51.118;4.176;2022-12-18T08:43:44;-4.00;99.90
24252;DHT22;12380;51.118;4.176;2022-12-18T08:46:31;-3.90;99.90
24252;DHT22;12380;51.118;4.176;2022-12-18T08:48:57;-3.70;99.90
24252;DHT22;12380;51.118;4.176;2022-12-18T08:51:24;-3.70;99.90
24252;DHT22;12380;51.118;4.176;2022-12-18T08:53:52;-3.50;99.90
24252;DHT22;12380;51.118;4.176;2022-12-18T08:56:21;-3.30;99.90
24252;DHT22;12380;51.118;4.176;2022-12-18T08:58:46;-3.30;99.90
24252;DHT22;12380;51.118;4.176;2022-12-18T09:01:14;-3.10;99.90
24252;DHT22;12380;51.118;4.176;2022-12-18T09:03:40;-3.00;99.90
24252;DHT22;12380;51.118;4.176;2022-12-18T09:06:06;-3.00;99.90
24252;DHT22;12380;51.118;4.176;2022-12-18T09:08:35;-3.00;99.90
24252;DHT22;12380;51.118;4.176;2022-12-18T09:11:02;-3.10;99.90
24252;DHT22;12380;51.118;4.176;2022-12-18T09:13:27;-3.10;99.90
24252;DHT22;12380;51.118;4.176;2022-12-18T09:15:56;-3.10;99.90
24252;DHT22;12380;51.118;4.176;2022-12-18T09:18:22;-3.10;99.90
24252;DHT22;12380;51.118;4.176;2022-12-18T09:20:51;-3.00;99.90
24252;DHT22;12380;51.118;4.176;2022-12-18T09:23:18;-3.10;99.90
24252;DHT22;12380;51.118;4.176;2022-12-18T09:25:43;-3.10;99.90
24252;DHT22;12380;51.118;4.176;2022-12-18T09:28:14;-3.00;99.90
24252;DHT22;12380;51.118;4.176;2022-12-18T09:30:41;-3.00;99.90
24252;DHT22;12380;51.118;4.176;2022-12-18T09:33:10;-3.00;99.90
24252;DHT22;12380;51.118;4.176;2022-12-18T09:35:39;-2.90;99.90
24252;DHT22;12380;51.118;4.176;2022-12-18T09:38:05;-3.00;99.90
24252;DHT22;12380;51.118;4.176;2022-12-18T09:40:34;-3.00;99.90
24252;DHT22;12380;51.118;4.176;2022-12-18T09:43:00;-3.00;99.90
24252;DHT22;12380;51.118;4.176;2022-12-18T09:45:29;-3.10;99.90
24252;DHT22;12380;51.118;4.176;2022-12-18T09:47:55;-3.00;99.90
24252;DHT22;12380;51.118;4.176;2022-12-18T09:50:26;-2.90;99.90
24252;DHT22;12380;51.118;4.176;2022-12-18T09:52:55;-3.00;99.90
24252;DHT22;12380;51.118;4.176;2022-12-18T09:57:57;-3.10;99.90
24252;DHT22;12380;51.118;4.176;2022-12-18T10:00:26;-2.90;99.90
24252;DHT22;12380;51.118;4.176;2022-12-18T10:02:53;-2.80;99.90
24252;DHT22;12380;51.118;4.176;2022-12-18T10:10:26;-2.50;99.90
24252;DHT22;12380;51.118;4.176;2022-12-18T10:13:02;-2.70;99.90
24252;DHT22;12380;51.118;4.176;2022-12-18T10:20:45;-2.40;99.90
24252;DHT22;12380;51.118;4.176;2022-12-18T10:23:15;-2.50;99.90
24252;DHT22;12380;51.118;4.176;2022-12-18T10:25:52;-2.40;99.90
24252;DHT22;12380;51.118;4.176;2022-12-18T10:28:21;-2.00;99.90
24252;DHT22;12380;51.118;4.176;2022-12-18T10:30:47;-2.30;99.90
24252;DHT22;12380;51.118;4.176;2022-12-18T10:33:13;-2.30;99.90
24252;DHT22;12380;51.118;4.176;2022-12-18T10:35:41;-2.30;99.90
24252;DHT22;12380;51.118;4.176;2022-12-18T10:43:24;-1.80;99.90
24252;DHT22;12380;51.118;4.176;2022-12-18T10:48:25;-2.10;99.90
24252;DHT22;12380;51.118;4.176;2022-12-18T10:50:52;-1.90;99.90
24252;DHT22;12380;51.118;4.176;2022-12-18T10:53:28;-1.90;99.90
24252;DHT22;12380;51.118;4.176;2022-12-18T10:55:56;-2.10;99.90
24252;DHT22;12380;51.118;4.176;2022-12-18T10:58:33;-2.00;99.90
24252;DHT22;12380;51.118;4.176;2022-12-18T11:03:40;-1.90;99.90
24252;DHT22;12380;51.118;4.176;2022-12-18T11:06:08;-1.80;99.90
24252;DHT22;12380;51.118;4.176;2022-12-18T11:08:35;-1.70;99.90
24252;DHT22;12380;51.118;4.176;2022-12-18T11:11:02;-1.70;99.90
24252;DHT22;12380;51.118;4.176;2022-12-18T11:13:29;-1.60;99.90
24252;DHT22;12380;51.118;4.176;2022-12-18T11:15:55;-1.50;99.90
24252;DHT22;12380;51.118;4.176;2022-12-18T11:20:57;-1.50;99.90
24252;DHT22;12380;51.118;4.176;2022-12-18T11:23:24;-1.50;99.90
24252;DHT22;12380;51.118;4.176;2022-12-18T11:25:51;-1.30;99.90
24252;DHT22;12380;51.118;4.176;2022-12-18T11:31:16;-1.00;99.90
24252;DHT22;12380;51.118;4.176;2022-12-18T11:33:43;-1.20;99.90
24252;DHT22;12380;51.118;4.176;2022-12-18T11:36:13;-1.10;99.90
24252;DHT22;12380;51.118;4.176;2022-12-18T11:38:40;-0.90;99.90
24252;DHT22;12380;51.118;4.176;2022-12-18T11:44:11;-1.20;99.90
24252;DHT22;12380;51.118;4.176;2022-12-18T11:49:34;-1.30;99.90
24252;DHT22;12380;51.118;4.176;2022-12-18T11:54:40;-1.20;99.90
24252;DHT22;12380;51.118;4.176;2022-12-18T12:05:41;-1.00;99.90
24252;DHT22;12380;51.118;4.176;2022-12-18T12:23:59;-0.60;99.90
24252;DHT22;12380;51.118;4.176;2022-12-18T12:26:33;-0.70;99.90
24252;DHT22;12380;51.118;4.176;2022-12-18T12:34:24;-0.80;99.90
24252;DHT22;12380;51.118;4.176;2022-12-18T12:39:18;-0.80;99.90
24252;DHT22;12380;51.118;4.176;2022-12-18T12:41:46;-0.70;99.90
24252;DHT22;12380;51.118;4.176;2022-12-18T12:44:31;-0.50;99.90
24252;DHT22;12380;51.118;4.176;2022-12-18T12:47:03;-0.50;99.90
24252;DHT22;12380;51.118;4.176;2022-12-18T12:49:31;-0.30;99.90
24252;DHT22;12380;51.118;4.176;2022-12-18T12:52:04;-0.50;99.90
24252;DHT22;12380;51.118;4.176;2022-12-18T12:54:31;-0.40;99.90
24252;DHT22;12380;51.118;4.176;2022-12-18T12:57:00;-0.60;99.90
24252;DHT22;12380;51.118;4.176;2022-12-18T13:02:04;-0.40;99.90
24252;DHT22;12380;51.118;4.176;2022-12-18T13:07:06;-0.40;99.90
24252;DHT22;12380;51.118;4.176;2022-12-18T13:12:22;-0.40;99.90
24252;DHT22;12380;51.118;4.176;2022-12-18T13:15:19;-0.40;99.90
24252;DHT22;12380;51.118;4.176;2022-12-18T13:17:46;-0.30;99.90
24252;DHT22;12380;51.118;4.176;2022-12-18T13:20:12;-0.20;99.90
24252;DHT22;12380;51.118;4.176;2022-12-18T13:22:43;-0.30;99.90
24252;DHT22;12380;51.118;4.176;2022-12-18T13:25:29;-0.50;99.90
24252;DHT22;12380;51.118;4.176;2022-12-18T13:45:46;-0.60;99.90
24252;DHT22;12380;51.118;4.176;2022-12-18T13:48:17;-0.50;99.90
24252;DHT22;12380;51.118;4.176;2022-12-18T13:50:47;-0.70;99.90
24252;DHT22;12380;51.118;4.176;2022-12-18T13:53:19;-0.60;99.90
24252;DHT22;12380;51.118;4.176;2022-12-18T13:55:46;-0.60;99.90
24252;DHT22;12380;51.118;4.176;2022-12-18T13:58:12;-0.50;99.90
24252;DHT22;12380;51.118;4.176;2022-12-18T14:00:43;-0.60;99.90
24252;DHT22;12380;51.118;4.176;2022-12-18T14:03:22;-0.50;99.90
24252;DHT22;12380;51.118;4.176;2022-12-18T14:05:52;-0.50;99.90
24252;DHT22;12380;51.118;4.176;2022-12-18T14:08:21;-0.50;99.90
24252;DHT22;12380;51.118;4.176;2022-12-18T14:10:48;-0.40;99.90
24252;DHT22;12380;51.118;4.176;2022-12-18T14:13:24;-0.50;99.90
24252;DHT22;12380;51.118;4.176;2022-12-18T14:15:54;-0.70;99.90
24252;DHT22;12380;51.118;4.176;2022-12-18T14:18:25;-0.60;99.90
24252;DHT22;12380;51.118;4.176;2022-12-18T14:20:53;-0.40;99.90
24252;DHT22;12380;51.118;4.176;2022-12-18T14:23:30;-0.50;99.90
24252;DHT22;12380;51.118;4.176;2022-12-18T14:25:56;-0.40;99.90
24252;DHT22;12380;51.118;4.176;2022-12-18T14:28:22;-0.40;99.90
24252;DHT22;12380;51.118;4.176;2022-12-18T14:30:51;-0.30;99.90
24252;DHT22;12380;51.118;4.176;2022-12-18T14:33:26;-0.20;99.90
24252;DHT22;12380;51.118;4.176;2022-12-18T14:35:54;-0.30;99.90
24252;DHT22;12380;51.118;4.176;2022-12-18T14:38:24;-0.30;99.90
24252;DHT22;12380;51.118;4.176;2022-12-18T14:40:53;-0.20;99.90
24252;DHT22;12380;51.118;4.176;2022-12-18T14:43:23;-0.20;99.90
24252;DHT22;12380;51.118;4.176;2022-12-18T14:45:50;-0.20;99.90
24252;DHT22;12380;51.118;4.176;2022-12-18T14:48:32;-0.20;99.90
24252;DHT22;12380;51.118;4.176;2022-12-18T14:51:20;-0.30;99.90
24252;DHT22;12380;51.118;4.176;2022-12-18T14:53:47;-0.20;99.90
24252;DHT22;12380;51.118;4.176;2022-12-18T14:56:18;-0.20;99.90
24252;DHT22;12380;51.118;4.176;2022-12-18T14:59:03;-0.30;99.90
24252;DHT22;12380;51.118;4.176;2022-12-18T15:01:32;-0.20;99.90
24252;DHT22;12380;51.118;4.176;2022-12-18T15:03:59;-0.10;99.90
24252;DHT22;12380;51.118;4.176;2022-12-18T15:06:26;-0.10;99.90
24252;DHT22;12380;51.118;4.176;2022-12-18T15:08:53;-0.10;99.90
24252;DHT22;12380;51.118;4.176;2022-12-18T15:11:30;0.00;99.90
24252;DHT22;12380;51.118;4.176;2022-12-18T15:13:58;0.10;99.90
24252;DHT22;12380;51.118;4.176;2022-12-18T15:16:26;0.00;99.90
24252;DHT22;12380;51.118;4.176;2022-12-18T15:18:52;0.10;99.90
24252;DHT22;12380;51.118;4.176;2022-12-18T15:21:21;0.20;99.90
24252;DHT22;12380;51.118;4.176;2022-12-18T15:26:15;0.00;99.90
24252;DHT22;12380;51.118;4.176;2022-12-18T15:33:45;0.10;99.90
24252;DHT22;12380;51.118;4.176;2022-12-18T15:36:25;0.00;99.90
24252;DHT22;12380;51.118;4.176;2022-12-18T15:38:50;0.00;99.90
24252;DHT22;12380;51.118;4.176;2022-12-18T15:41:17;0.10;99.90
24252;DHT22;12380;51.118;4.176;2022-12-18T15:43:43;0.20;99.90
24252;DHT22;12380;51.118;4.176;2022-12-18T15:46:13;0.20;99.90
24252;DHT22;12380;51.118;4.176;2022-12-18T15:48:46;0.10;99.90
24252;DHT22;12380;51.118;4.176;2022-12-18T15:51:19;0.10;99.90
24252;DHT22;12380;51.118;4.176;2022-12-18T15:53:46;0.10;99.90
24252;DHT22;12380;51.118;4.176;2022-12-18T15:56:12;0.10;99.90
24252;DHT22;12380;51.118;4.176;2022-12-18T15:58:57;0.20;99.90
24252;DHT22;12380;51.118;4.176;2022-12-18T16:01:23;0.30;99.90
24252;DHT22;12380;51.118;4.176;2022-12-18T16:03:49;0.40;99.90
24252;DHT22;12380;51.118;4.176;2022-12-18T16:06:14;0.30;99.90
24252;DHT22;12380;51.118;4.176;2022-12-18T16:08:40;0.40;99.90
24252;DHT22;12380;51.118;4.176;2022-12-18T16:11:27;0.40;99.90
24252;DHT22;12380;51.118;4.176;2022-12-18T16:14:25;0.30;99.90
24252;DHT22;12380;51.118;4.176;2022-12-18T16:16:55;0.30;99.90
24252;DHT22;12380;51.118;4.176;2022-12-18T16:19:24;0.20;99.90
24252;DHT22;12380;51.118;4.176;2022-12-18T16:21:52;0.20;99.90
24252;DHT22;12380;51.118;4.176;2022-12-18T16:24:23;0.20;99.90
24252;DHT22;12380;51.118;4.176;2022-12-18T16:26:52;0.30;99.90
24252;DHT22;12380;51.118;4.176;2022-12-18T16:29:21;0.30;99.90
24252;DHT22;12380;51.118;4.176;2022-12-18T16:31:52;0.30;99.90
24252;DHT22;12380;51.118;4.176;2022-12-18T16:34:22;0.40;99.90
24252;DHT22;12380;51.118;4.176;2022-12-18T16:36:52;0.30;99.90
24252;DHT22;12380;51.118;4.176;2022-12-18T16:39:19;0.40;99.90
24252;DHT22;12380;51.118;4.176;2022-12-18T16:41:45;0.50;99.90
24252;DHT22;12380;51.118;4.176;2022-12-18T16:44:11;0.50;99.90
24252;DHT22;12380;51.118;4.176;2022-12-18T16:46:37;0.60;99.90
24252;DHT22;12380;51.118;4.176;2022-12-18T16:49:04;0.60;99.90
24252;DHT22;12380;51.118;4.176;2022-12-18T16:51:33;0.70;99.90
24252;DHT22;12380;51.118;4.176;2022-12-18T16:53:59;0.60;99.90
24252;DHT22;12380;51.118;4.176;2022-12-18T16:56:24;0.60;99.90
24252;DHT22;12380;51.118;4.176;2022-12-18T16:58:54;0.60;99.90
24252;DHT22;12380;51.118;4.176;2022-12-18T17:01:23;0.70;99.90
24252;DHT22;12380;51.118;4.176;2022-12-18T17:04:00;0.60;99.90
24252;DHT22;12380;51.118;4.176;2022-12-18T17:06:26;0.60;99.90
24252;DHT22;12380;51.118;4.176;2022-12-18T17:08:57;0.70;99.90
24252;DHT22;12380;51.118;4.176;2022-12-18T17:11:23;0.60;99.90
24252;DHT22;12380;51.118;4.176;2022-12-18T17:13:54;0.80;99.90
24252;DHT22;12380;51.118;4.176;2022-12-18T17:16:20;0.70;99.90
24252;DHT22;12380;51.118;4.176;2022-12-18T17:18:46;0.70;99.90
24252;DHT22;12380;51.118;4.176;2022-12-18T17:21:13;0.80;99.90
24252;DHT22;12380;51.118;4.176;2022-12-18T17:23:40;0.80;99.90
24252;DHT22;12380;51.118;4.176;2022-12-18T17:26:05;0.80;99.90
24252;DHT22;12380;51.118;4.176;2022-12-18T17:28:32;0.80;99.90
24252;DHT22;12380;51.118;4.176;2022-12-18T17:30:58;0.70;99.90
24252;DHT22;12380;51.118;4.176;2022-12-18T17:33:24;0.90;99.90
24252;DHT22;12380;51.118;4.176;2022-12-18T17:35:50;0.80;99.90
24252;DHT22;12380;51.118;4.176;2022-12-18T17:38:16;0.80;99.90
24252;DHT22;12380;51.118;4.176;2022-12-18T17:40:41;0.80;99.90